createdAt,value
2023-09-06T00:00:22.811Z,14.69
2023-09-06T00:03:24.824Z,14.67
2023-09-06T00:06:24.747Z,14.67
2023-09-06T00:09:24.778Z,14.67
2023-09-06T00:12:24.776Z,14.67
2023-09-06T00:15:25.780Z,14.65
2023-09-06T00:18:25.960Z,14.62
2023-09-06T00:21:26.862Z,14.56
2023-09-06T00:24:27.873Z,14.50
2023-09-06T00:27:27.796Z,14.45
2023-09-06T00:30:27.787Z,14.38
2023-09-06T00:33:28.836Z,14.31
2023-09-06T00:36:28.817Z,14.20
2023-09-06T00:39:28.860Z,14.11
2023-09-06T00:42:31.876Z,14.05
2023-09-06T00:45:33.832Z,14.00
2023-09-06T00:48:41.896Z,13.94
2023-09-06T00:51:42.825Z,13.90
2023-09-06T00:54:46.869Z,13.86
2023-09-06T00:57:47.866Z,13.82
2023-09-06T01:00:47.966Z,13.77
2023-09-06T01:03:47.989Z,13.74
2023-09-06T01:06:50.945Z,13.73
2023-09-06T01:09:50.919Z,13.73
2023-09-06T01:12:50.933Z,13.71
2023-09-06T01:15:53.975Z,13.70
2023-09-06T01:18:53.982Z,13.64
2023-09-06T01:22:05.992Z,13.57
2023-09-06T01:25:06.971Z,13.52
2023-09-06T01:28:06.943Z,13.50
2023-09-06T01:31:08.005Z,13.50
2023-09-06T01:34:08.004Z,13.48
2023-09-06T01:37:07.953Z,13.46
2023-09-06T01:40:08.000Z,13.44
2023-09-06T01:43:07.995Z,13.42
2023-09-06T01:46:08.028Z,13.38
2023-09-06T01:49:08.006Z,13.33
2023-09-06T01:52:09.038Z,13.27
2023-09-06T01:55:08.969Z,13.21
2023-09-06T01:58:11.044Z,13.16
2023-09-06T02:01:15.080Z,13.12
2023-09-06T02:04:15.015Z,13.08
2023-09-06T02:07:15.055Z,13.04
2023-09-06T02:10:18.035Z,13.02
2023-09-06T02:13:18.016Z,13.00
2023-09-06T02:16:19.116Z,12.96
2023-09-06T02:19:19.078Z,12.93
2023-09-06T02:22:19.073Z,12.90
2023-09-06T02:25:24.081Z,12.87
2023-09-06T02:28:25.064Z,12.85
2023-09-06T02:31:25.137Z,12.82
2023-09-06T02:34:25.077Z,12.78
2023-09-06T02:37:25.076Z,12.71
2023-09-06T02:40:25.065Z,12.65
2023-09-06T02:43:25.122Z,12.59
2023-09-06T02:46:25.123Z,12.55
2023-09-06T02:49:25.090Z,12.52
2023-09-06T02:52:43.099Z,12.47
2023-09-06T02:55:44.078Z,12.41
2023-09-06T02:58:44.350Z,12.36
2023-09-06T03:01:45.130Z,12.32
2023-09-06T03:04:48.125Z,12.31
2023-09-06T03:07:50.108Z,12.30
2023-09-06T03:10:56.130Z,12.29
2023-09-06T03:14:02.122Z,12.29
2023-09-06T03:17:02.145Z,12.32
2023-09-06T03:20:07.144Z,12.33
2023-09-06T03:23:07.149Z,12.38
2023-09-06T03:26:08.144Z,12.42
2023-09-06T03:29:08.167Z,12.49
2023-09-06T03:32:08.190Z,12.57
2023-09-06T03:35:08.190Z,12.64
2023-09-06T03:38:09.290Z,12.70
2023-09-06T03:41:09.253Z,12.75
2023-09-06T03:44:09.239Z,12.81
2023-09-06T03:47:12.300Z,12.87
2023-09-06T03:50:12.203Z,12.94
2023-09-06T03:53:12.248Z,13.01
2023-09-06T03:56:12.261Z,13.07
2023-09-06T03:59:15.214Z,13.13
2023-09-06T04:02:20.376Z,13.18
2023-09-06T04:05:21.250Z,13.23
2023-09-06T04:08:27.541Z,13.32
2023-09-06T04:11:28.279Z,13.42
2023-09-06T04:14:29.290Z,13.51
2023-09-06T04:17:29.291Z,13.62
2023-09-06T04:20:30.281Z,13.72
2023-09-06T04:23:31.271Z,13.84
2023-09-06T04:26:32.283Z,13.97
2023-09-06T04:29:32.335Z,14.09
2023-09-06T04:32:32.307Z,14.22
2023-09-06T04:35:32.330Z,14.35
2023-09-06T04:38:34.436Z,14.48
2023-09-06T04:41:38.325Z,14.63
2023-09-06T04:44:38.311Z,14.78
2023-09-06T04:47:39.426Z,14.95
2023-09-06T04:50:40.396Z,15.11
2023-09-06T04:53:41.380Z,15.28
2023-09-06T04:56:49.389Z,15.43
2023-09-06T04:59:50.411Z,15.60
2023-09-06T05:02:50.439Z,15.75
2023-09-06T05:05:50.537Z,15.92
2023-09-06T05:08:51.396Z,16.08
2023-09-06T05:11:52.392Z,16.26
2023-09-06T05:14:52.414Z,16.43
2023-09-06T05:17:54.470Z,16.62
2023-09-06T05:20:54.401Z,16.79
2023-09-06T05:23:54.420Z,16.97
2023-09-06T05:26:54.441Z,17.13
2023-09-06T05:29:54.448Z,17.28
2023-09-06T05:32:54.483Z,17.41
2023-09-06T05:35:54.433Z,17.54
2023-09-06T05:38:54.505Z,17.67
2023-09-06T05:41:54.449Z,17.79
2023-09-06T05:44:54.479Z,17.90
2023-09-06T05:47:54.570Z,18.02
2023-09-06T05:50:54.453Z,18.13
2023-09-06T05:53:54.504Z,18.23
2023-09-06T05:56:54.476Z,18.35
2023-09-06T05:59:54.500Z,18.46
2023-09-06T06:03:01.515Z,18.58
2023-09-06T06:06:02.527Z,18.68
2023-09-06T06:09:02.513Z,18.78
2023-09-06T06:12:02.524Z,18.90
2023-09-06T06:15:07.534Z,19.03
2023-09-06T06:18:07.567Z,19.16
2023-09-06T06:21:07.568Z,19.28
2023-09-06T06:24:07.554Z,19.39
2023-09-06T06:27:07.705Z,19.49
2023-09-06T06:30:08.657Z,19.59
2023-09-06T06:33:09.024Z,19.68
2023-09-06T06:36:09.553Z,19.80
2023-09-06T06:39:09.581Z,19.91
2023-09-06T06:42:09.575Z,20.02
2023-09-06T06:45:14.264Z,20.17
2023-09-06T06:48:15.663Z,20.36
2023-09-06T06:51:15.594Z,20.58
2023-09-06T06:54:22.607Z,20.85
2023-09-06T06:57:22.617Z,21.18
2023-09-06T07:00:24.613Z,21.56
2023-09-06T07:03:24.745Z,21.97
2023-09-06T07:06:24.651Z,22.38
2023-09-06T07:09:24.611Z,22.76
2023-09-06T07:12:24.664Z,23.16
2023-09-06T07:15:24.704Z,23.58
2023-09-06T07:18:24.689Z,23.95
2023-09-06T07:21:25.686Z,24.33
2023-09-06T07:24:25.753Z,24.68
2023-09-06T07:27:25.668Z,24.98
2023-09-06T07:30:25.711Z,25.26
2023-09-06T07:33:25.703Z,25.54
2023-09-06T07:36:25.725Z,25.79
2023-09-06T07:39:25.698Z,26.05
2023-09-06T07:42:25.788Z,26.25
2023-09-06T07:45:25.710Z,26.47
2023-09-06T07:48:25.928Z,26.67
2023-09-06T07:51:26.009Z,26.86
2023-09-06T07:54:25.730Z,27.01
2023-09-06T07:57:26.756Z,27.15
2023-09-06T08:00:27.741Z,27.24
2023-09-06T08:03:27.848Z,27.40
2023-09-06T08:06:28.853Z,27.51
2023-09-06T08:09:28.863Z,27.58
2023-09-06T08:12:30.769Z,27.66
2023-09-06T08:15:30.858Z,27.78
2023-09-06T08:18:24.053Z,27.93
2023-09-06T08:21:27.903Z,27.91
2023-09-06T08:24:27.881Z,27.88
2023-09-06T08:27:27.794Z,27.99
2023-09-06T08:30:30.071Z,28.10
2023-09-06T08:33:29.893Z,28.19
2023-09-06T08:36:29.854Z,28.25
2023-09-06T08:39:30.896Z,28.33
2023-09-06T08:42:40.846Z,28.42
2023-09-06T08:45:41.836Z,28.43
2023-09-06T08:48:42.016Z,28.40
2023-09-06T08:51:43.988Z,28.38
2023-09-06T08:54:43.928Z,28.41
2023-09-06T08:57:45.908Z,28.41
2023-09-06T09:00:46.018Z,28.41
2023-09-06T09:03:50.072Z,28.38
2023-09-06T09:06:57.959Z,28.29
2023-09-06T09:10:20.912Z,28.28
2023-09-06T09:13:24.997Z,28.32
2023-09-06T09:16:27.056Z,28.37
2023-09-06T09:19:26.992Z,28.41
2023-09-06T09:22:28.002Z,28.39
2023-09-06T09:25:30.990Z,28.38
2023-09-06T09:28:31.162Z,28.32
2023-09-06T09:31:32.943Z,28.34
2023-09-06T09:34:33.018Z,28.40
2023-09-06T09:37:37.803Z,28.46
2023-09-06T09:43:42.986Z,28.51
2023-09-06T09:46:44.135Z,28.51
2023-09-06T09:49:47.116Z,28.51
2023-09-06T09:52:48.315Z,28.53
2023-09-06T09:55:55.015Z,28.50
2023-09-06T09:58:55.027Z,28.45
2023-09-06T10:01:58.187Z,28.40
2023-09-06T10:04:58.172Z,28.34
2023-09-06T10:07:58.062Z,28.32
2023-09-06T10:10:58.036Z,28.39
2023-09-06T10:13:59.143Z,28.48
2023-09-06T10:17:02.043Z,28.50
2023-09-06T10:20:03.098Z,28.54
2023-09-06T10:23:05.102Z,28.65
2023-09-06T10:26:05.099Z,28.73
2023-09-06T10:29:12.245Z,28.78
2023-09-06T10:32:18.112Z,28.79
2023-09-06T10:35:38.113Z,28.70
2023-09-06T10:38:38.148Z,28.48
2023-09-06T10:41:41.132Z,28.29
2023-09-06T10:44:41.155Z,28.26
2023-09-06T10:47:41.156Z,28.28
2023-09-06T10:50:44.203Z,28.23
2023-09-06T10:53:44.156Z,28.07
2023-09-06T10:56:47.161Z,27.98
2023-09-06T10:59:51.168Z,28.01
2023-09-06T11:02:52.327Z,28.11
2023-09-06T11:05:55.199Z,28.18
2023-09-06T11:08:55.200Z,28.30
2023-09-06T11:11:55.205Z,28.46
2023-09-06T11:14:58.194Z,28.62
2023-09-06T11:17:59.262Z,28.79
2023-09-06T11:21:06.296Z,28.87
2023-09-06T11:24:07.247Z,28.93
2023-09-06T11:27:11.248Z,28.97
2023-09-06T11:30:23.438Z,28.88
2023-09-06T11:33:23.254Z,28.67
2023-09-06T11:36:25.260Z,28.43
2023-09-06T11:39:26.300Z,28.19
2023-09-06T11:42:30.258Z,28.06
2023-09-06T11:45:30.275Z,28.08
2023-09-06T11:48:34.288Z,28.07
2023-09-06T11:51:36.289Z,28.01
2023-09-06T11:54:39.288Z,27.91
2023-09-06T11:57:39.325Z,27.79
2023-09-06T12:00:51.547Z,27.66
2023-09-06T12:03:59.363Z,27.46
2023-09-06T12:06:59.453Z,27.27
2023-09-06T12:10:01.355Z,27.16
2023-09-06T12:13:03.381Z,27.09
2023-09-06T12:16:04.347Z,27.04
2023-09-06T12:19:04.360Z,27.05
2023-09-06T12:22:04.487Z,27.12
2023-09-06T12:25:04.363Z,27.22
2023-09-06T12:28:04.355Z,27.36
2023-09-06T12:31:16.477Z,27.49
2023-09-06T12:34:18.412Z,27.60
2023-09-06T12:37:18.400Z,27.58
2023-09-06T12:40:23.438Z,27.46
2023-09-06T12:43:23.415Z,27.36
2023-09-06T12:46:25.432Z,27.25
2023-09-06T12:49:25.443Z,27.15
2023-09-06T12:52:29.423Z,27.07
2023-09-06T12:55:29.448Z,27.03
2023-09-06T12:58:29.726Z,27.02
2023-09-06T13:01:30.556Z,27.05
2023-09-06T13:04:32.586Z,27.14
2023-09-06T13:07:33.478Z,27.27
2023-09-06T13:10:33.526Z,27.41
2023-09-06T13:13:33.488Z,27.50
2023-09-06T13:16:33.536Z,27.49
2023-09-06T13:19:33.548Z,27.40
2023-09-06T13:22:33.512Z,27.28
2023-09-06T13:25:33.642Z,27.20
2023-09-06T13:28:33.545Z,27.21
2023-09-06T13:31:33.739Z,27.23
2023-09-06T13:34:34.571Z,27.26
2023-09-06T13:37:34.561Z,27.31
2023-09-06T13:40:34.620Z,27.36
2023-09-06T13:43:35.576Z,27.39
2023-09-06T13:46:35.544Z,27.39
2023-09-06T13:49:35.568Z,27.39
2023-09-06T13:52:35.584Z,27.41
2023-09-06T13:55:35.679Z,27.43
2023-09-06T13:58:38.613Z,27.45
2023-09-06T14:01:38.702Z,27.47
2023-09-06T14:04:38.717Z,27.49
2023-09-06T14:07:38.638Z,27.52
2023-09-06T14:10:38.623Z,27.55
2023-09-06T14:13:40.689Z,27.61
2023-09-06T14:16:40.658Z,27.63
2023-09-06T14:19:42.755Z,27.63
2023-09-06T14:22:42.678Z,27.58
2023-09-06T14:25:42.689Z,27.53
2023-09-06T14:28:42.664Z,27.46
2023-09-06T14:31:42.752Z,27.36
2023-09-06T14:34:43.665Z,27.24
2023-09-06T14:37:43.684Z,27.14
2023-09-06T14:40:43.674Z,27.07
2023-09-06T14:43:43.694Z,27.02
2023-09-06T14:46:43.750Z,26.97
2023-09-06T14:49:43.698Z,26.91
2023-09-06T14:52:43.712Z,26.87
2023-09-06T14:55:44.733Z,26.80
2023-09-06T14:58:44.719Z,26.72
2023-09-06T15:01:45.735Z,26.64
2023-09-06T15:04:45.711Z,26.56
2023-09-06T15:07:46.777Z,26.49
2023-09-06T15:10:46.801Z,26.43
2023-09-06T15:13:46.800Z,26.38
2023-09-06T15:16:46.871Z,26.34
2023-09-06T15:19:46.791Z,26.25
2023-09-06T15:22:47.752Z,26.20
2023-09-06T15:25:47.882Z,26.11
2023-09-06T15:28:47.804Z,26.00
2023-09-06T15:31:47.810Z,25.88
2023-09-06T15:34:48.821Z,25.80
2023-09-06T15:37:48.854Z,25.68
2023-09-06T15:40:48.821Z,25.56
2023-09-06T15:43:48.821Z,25.42
2023-09-06T15:46:49.864Z,25.25
2023-09-06T15:49:49.817Z,25.09
2023-09-06T15:52:49.842Z,24.94
2023-09-06T15:55:49.837Z,24.80
2023-09-06T15:58:49.859Z,24.66
2023-09-06T16:01:49.914Z,24.52
2023-09-06T16:04:49.897Z,24.38
2023-09-06T16:07:51.935Z,24.23
2023-09-06T16:10:51.916Z,24.10
2023-09-06T16:13:52.345Z,23.97
2023-09-06T16:16:53.042Z,23.86
2023-09-06T16:19:52.900Z,23.75
2023-09-06T16:22:53.044Z,23.64
2023-09-06T16:25:54.936Z,23.55
2023-09-06T16:28:54.920Z,23.43
2023-09-06T16:31:54.934Z,23.32
2023-09-06T16:34:54.962Z,23.24
2023-09-06T16:37:57.962Z,23.18
2023-09-06T16:40:57.974Z,23.12
2023-09-06T16:43:57.971Z,23.06
2023-09-06T16:46:58.132Z,23.00
2023-09-06T16:49:58.993Z,22.92
2023-09-06T16:52:58.981Z,22.84
2023-09-06T16:55:59.011Z,22.77
2023-09-06T16:58:59.018Z,22.69
2023-09-06T17:01:59.021Z,22.61
2023-09-06T17:05:01.138Z,22.56
2023-09-06T17:08:01.992Z,22.52
2023-09-06T17:11:04.039Z,22.46
2023-09-06T17:14:04.018Z,22.34
2023-09-06T17:17:04.080Z,22.24
2023-09-06T17:20:04.046Z,22.17
2023-09-06T17:23:05.043Z,22.12
2023-09-06T17:26:05.133Z,22.06
2023-09-06T17:29:05.085Z,21.98
2023-09-06T17:32:05.218Z,21.93
2023-09-06T17:35:05.192Z,21.88
2023-09-06T17:38:07.097Z,21.82
2023-09-06T17:41:07.091Z,21.70
2023-09-06T17:44:07.945Z,21.67
2023-09-06T17:47:10.093Z,21.63
2023-09-06T17:50:10.106Z,21.60
2023-09-06T17:53:16.104Z,21.54
2023-09-06T17:56:22.126Z,21.49
2023-09-06T17:59:25.168Z,21.44
2023-09-06T18:02:26.424Z,21.39
2023-09-06T18:05:29.558Z,21.36
2023-09-06T18:08:30.444Z,21.29
2023-09-06T18:11:31.242Z,21.25
2023-09-06T18:14:32.198Z,21.22
2023-09-06T18:17:32.245Z,21.18
2023-09-06T18:20:32.219Z,21.18
2023-09-06T18:23:32.223Z,21.12
2023-09-06T18:26:32.197Z,21.07
2023-09-06T18:29:32.200Z,21.04
2023-09-06T18:32:32.205Z,21.01
2023-09-06T18:35:34.343Z,20.99
2023-09-06T18:38:35.209Z,20.96
2023-09-06T18:41:35.700Z,20.93
2023-09-06T18:44:38.251Z,20.89
2023-09-06T18:47:38.394Z,20.86
2023-09-06T18:50:39.245Z,20.82
2023-09-06T18:53:39.251Z,20.78
2023-09-06T18:56:41.257Z,20.72
2023-09-06T18:59:41.339Z,20.68
2023-09-06T19:02:41.293Z,20.63
2023-09-06T19:05:43.440Z,20.59
2023-09-06T19:08:44.360Z,20.55
2023-09-06T19:11:44.298Z,20.52
2023-09-06T19:14:44.298Z,20.49
2023-09-06T19:17:48.368Z,20.46
2023-09-06T19:20:49.328Z,20.41
2023-09-06T19:23:49.332Z,20.38
2023-09-06T19:26:49.361Z,20.36
2023-09-06T19:29:50.325Z,20.33
2023-09-06T19:32:52.358Z,20.32
2023-09-06T19:35:52.353Z,20.29
2023-09-06T19:38:52.381Z,20.26
2023-09-06T19:41:52.413Z,20.26
2023-09-06T19:44:52.354Z,20.25
2023-09-06T19:47:53.406Z,20.23
2023-09-06T19:50:53.475Z,20.19
2023-09-06T19:53:53.392Z,20.14
2023-09-06T19:56:53.399Z,20.11
2023-09-06T19:59:53.421Z,20.07
2023-09-06T20:02:53.575Z,20.05
2023-09-06T20:05:54.455Z,20.01
2023-09-06T20:08:54.467Z,19.98
2023-09-06T20:11:55.433Z,19.94
2023-09-06T20:14:55.490Z,19.92
2023-09-06T20:17:55.647Z,19.89
2023-09-06T20:20:56.503Z,19.85
2023-09-06T20:23:57.590Z,19.79
2023-09-06T20:26:57.681Z,19.72
2023-09-06T20:29:57.502Z,19.67
2023-09-06T20:32:57.571Z,19.63
2023-09-06T20:35:57.540Z,19.57
2023-09-06T20:38:57.551Z,19.53
2023-09-06T20:41:57.529Z,19.46
2023-09-06T20:44:57.533Z,19.42
2023-09-06T20:47:57.512Z,19.37
2023-09-06T20:50:58.772Z,19.34
2023-09-06T20:54:00.528Z,19.29
2023-09-06T20:57:00.534Z,19.23
2023-09-06T21:00:00.566Z,19.17
2023-09-06T21:03:00.635Z,19.11
2023-09-06T21:06:10.560Z,19.06
2023-09-06T21:09:11.624Z,19.02
2023-09-06T21:12:11.580Z,19.00
2023-09-06T21:15:12.558Z,18.95
2023-09-06T21:18:12.689Z,18.89
2023-09-06T21:21:12.574Z,18.84
2023-09-06T21:24:12.614Z,18.79
2023-09-06T21:27:12.613Z,18.74
2023-09-06T21:30:13.624Z,18.67
2023-09-06T21:33:14.688Z,18.61
2023-09-06T21:36:14.648Z,18.57
2023-09-06T21:39:14.664Z,18.55
2023-09-06T21:42:14.722Z,18.51
2023-09-06T21:45:14.647Z,18.47
2023-09-06T21:48:14.798Z,18.41
2023-09-06T21:51:26.658Z,18.38
2023-09-06T21:54:26.650Z,18.36
2023-09-06T21:57:26.668Z,18.33
2023-09-06T22:00:28.663Z,18.29
2023-09-06T22:03:47.838Z,18.23
2023-09-06T22:07:05.686Z,18.18
2023-09-06T22:10:23.798Z,18.09
2023-09-06T22:13:42.682Z,18.02
2023-09-06T22:16:42.737Z,17.98
2023-09-06T22:19:42.747Z,17.94
2023-09-06T22:22:42.717Z,17.88
2023-09-06T22:25:42.706Z,17.83
2023-09-06T22:28:42.749Z,17.75
2023-09-06T22:31:42.804Z,17.67
2023-09-06T22:34:43.782Z,17.61
2023-09-06T22:37:44.769Z,17.53
2023-09-06T22:40:44.752Z,17.47
2023-09-06T22:43:44.783Z,17.40
2023-09-06T22:46:44.827Z,17.35
2023-09-06T22:49:44.821Z,17.30
2023-09-06T22:52:44.906Z,17.26
2023-09-06T22:55:44.802Z,17.20
2023-09-06T22:58:44.862Z,17.11
2023-09-06T23:01:44.991Z,17.04
2023-09-06T23:04:45.861Z,16.97
2023-09-06T23:07:45.827Z,16.89
2023-09-06T23:10:46.819Z,16.78
2023-09-06T23:13:46.852Z,16.67
2023-09-06T23:16:47.959Z,16.56
2023-09-06T23:19:53.856Z,16.49
2023-09-06T23:22:56.861Z,16.44
2023-09-06T23:25:59.837Z,16.41
2023-09-06T23:29:00.857Z,16.40
2023-09-06T23:32:00.942Z,16.36
2023-09-06T23:35:02.019Z,16.35
2023-09-06T23:38:05.882Z,16.34
2023-09-06T23:41:06.904Z,16.31
2023-09-06T23:44:10.878Z,16.28
2023-09-06T23:47:12.998Z,16.25
2023-09-06T23:50:12.900Z,16.23
2023-09-06T23:53:12.945Z,16.18
2023-09-06T23:56:17.903Z,16.15
2023-09-06T23:59:17.943Z,16.13
